sensor_id;sensor_type;location;lat;lon;timestamp;P1;durP1;ratioP1;P2;durP2;ratioP2
14470;SDS011;7321;50.802;4.336;2022-11-14T00:00:26;29.30;;;24.90;;
14470;SDS011;7321;50.802;4.336;2022-11-14T00:02:53;29.23;;;24.77;;
14470;SDS011;7321;50.802;4.336;2022-11-14T00:05:20;29.10;;;24.93;;
14470;SDS011;7321;50.802;4.336;2022-11-14T00:07:46;27.87;;;24.77;;
14470;SDS011;7321;50.802;4.336;2022-11-14T00:10:12;29.60;;;25.53;;
14470;SDS011;7321;50.802;4.336;2022-11-14T00:12:39;29.47;;;25.17;;
14470;SDS011;7321;50.802;4.336;2022-11-14T00:15:05;25.23;;;22.50;;
14470;SDS011;7321;50.802;4.336;2022-11-14T00:17:32;29.27;;;24.67;;
14470;SDS011;7321;50.802;4.336;2022-11-14T00:19:57;32.90;;;25.37;;
14470;SDS011;7321;50.802;4.336;2022-11-14T00:22:23;30.03;;;24.57;;
14470;SDS011;7321;50.802;4.336;2022-11-14T00:24:49;29.67;;;25.63;;
14470;SDS011;7321;50.802;4.336;2022-11-14T00:27:15;30.37;;;24.10;;
14470;SDS011;7321;50.802;4.336;2022-11-14T00:29:41;25.03;;;22.10;;
14470;SDS011;7321;50.802;4.336;2022-11-14T00:32:07;27.10;;;23.50;;
14470;SDS011;7321;50.802;4.336;2022-11-14T00:34:36;28.03;;;24.10;;
14470;SDS011;7321;50.802;4.336;2022-11-14T00:37:02;25.83;;;22.80;;
14470;SDS011;7321;50.802;4.336;2022-11-14T00:39:28;25.60;;;21.60;;
14470;SDS011;7321;50.802;4.336;2022-11-14T00:41:55;26.17;;;21.93;;
14470;SDS011;7321;50.802;4.336;2022-11-14T00:44:20;25.57;;;19.70;;
14470;SDS011;7321;50.802;4.336;2022-11-14T00:46:46;24.43;;;20.33;;
14470;SDS011;7321;50.802;4.336;2022-11-14T00:49:12;25.67;;;19.77;;
14470;SDS011;7321;50.802;4.336;2022-11-14T00:51:38;23.93;;;19.37;;
14470;SDS011;7321;50.802;4.336;2022-11-14T00:54:04;26.43;;;20.53;;
14470;SDS011;7321;50.802;4.336;2022-11-14T00:56:30;22.87;;;20.27;;
14470;SDS011;7321;50.802;4.336;2022-11-14T00:58:56;24.00;;;20.60;;
14470;SDS011;7321;50.802;4.336;2022-11-14T01:01:22;23.70;;;19.53;;
14470;SDS011;7321;50.802;4.336;2022-11-14T01:03:50;21.80;;;19.43;;
14470;SDS011;7321;50.802;4.336;2022-11-14T01:06:17;22.90;;;19.30;;
14470;SDS011;7321;50.802;4.336;2022-11-14T01:08:45;23.30;;;19.07;;
14470;SDS011;7321;50.802;4.336;2022-11-14T01:11:11;22.60;;;19.57;;
14470;SDS011;7321;50.802;4.336;2022-11-14T01:13:46;22.67;;;19.10;;
14470;SDS011;7321;50.802;4.336;2022-11-14T01:16:12;22.27;;;19.87;;
14470;SDS011;7321;50.802;4.336;2022-11-14T01:18:38;27.07;;;20.50;;
14470;SDS011;7321;50.802;4.336;2022-11-14T01:21:14;24.80;;;20.60;;
14470;SDS011;7321;50.802;4.336;2022-11-14T01:23:40;23.60;;;20.37;;
14470;SDS011;7321;50.802;4.336;2022-11-14T01:26:07;23.30;;;20.03;;
14470;SDS011;7321;50.802;4.336;2022-11-14T01:28:37;24.87;;;21.03;;
14470;SDS011;7321;50.802;4.336;2022-11-14T01:31:18;23.60;;;20.43;;
14470;SDS011;7321;50.802;4.336;2022-11-14T01:33:49;23.97;;;19.70;;
14470;SDS011;7321;50.802;4.336;2022-11-14T01:36:18;21.10;;;18.90;;
14470;SDS011;7321;50.802;4.336;2022-11-14T01:38:45;21.20;;;19.00;;
14470;SDS011;7321;50.802;4.336;2022-11-14T01:41:14;23.63;;;19.73;;
14470;SDS011;7321;50.802;4.336;2022-11-14T01:43:40;24.70;;;20.13;;
14470;SDS011;7321;50.802;4.336;2022-11-14T01:48:50;23.57;;;20.73;;
14470;SDS011;7321;50.802;4.336;2022-11-14T01:51:22;26.80;;;21.20;;
14470;SDS011;7321;50.802;4.336;2022-11-14T01:53:54;24.00;;;19.90;;
14470;SDS011;7321;50.802;4.336;2022-11-14T01:56:27;24.40;;;20.10;;
14470;SDS011;7321;50.802;4.336;2022-11-14T01:59:01;22.40;;;19.53;;
14470;SDS011;7321;50.802;4.336;2022-11-14T02:01:31;24.37;;;20.27;;
14470;SDS011;7321;50.802;4.336;2022-11-14T02:04:00;23.83;;;19.43;;
14470;SDS011;7321;50.802;4.336;2022-11-14T02:06:29;23.83;;;19.37;;
14470;SDS011;7321;50.802;4.336;2022-11-14T02:08:56;21.33;;;19.07;;
14470;SDS011;7321;50.802;4.336;2022-11-14T02:11:27;23.87;;;19.37;;
14470;SDS011;7321;50.802;4.336;2022-11-14T02:13:54;22.33;;;18.43;;
14470;SDS011;7321;50.802;4.336;2022-11-14T02:16:20;23.90;;;19.23;;
14470;SDS011;7321;50.802;4.336;2022-11-14T02:18:46;21.87;;;18.67;;
14470;SDS011;7321;50.802;4.336;2022-11-14T02:21:12;20.23;;;18.00;;
14470;SDS011;7321;50.802;4.336;2022-11-14T02:23:38;20.30;;;18.00;;
14470;SDS011;7321;50.802;4.336;2022-11-14T02:26:04;20.50;;;18.00;;
14470;SDS011;7321;50.802;4.336;2022-11-14T02:28:29;20.03;;;17.53;;
14470;SDS011;7321;50.802;4.336;2022-11-14T02:30:55;20.87;;;18.63;;
14470;SDS011;7321;50.802;4.336;2022-11-14T02:33:21;20.80;;;17.90;;
14470;SDS011;7321;50.802;4.336;2022-11-14T02:35:47;20.80;;;17.83;;
14470;SDS011;7321;50.802;4.336;2022-11-14T02:38:13;20.03;;;17.17;;
14470;SDS011;7321;50.802;4.336;2022-11-14T02:40:38;22.03;;;17.63;;
14470;SDS011;7321;50.802;4.336;2022-11-14T02:43:04;19.50;;;17.40;;
14470;SDS011;7321;50.802;4.336;2022-11-14T02:45:30;19.87;;;16.90;;
14470;SDS011;7321;50.802;4.336;2022-11-14T02:47:56;21.30;;;17.67;;
14470;SDS011;7321;50.802;4.336;2022-11-14T02:50:21;18.37;;;16.00;;
14470;SDS011;7321;50.802;4.336;2022-11-14T02:52:47;20.87;;;17.40;;
14470;SDS011;7321;50.802;4.336;2022-11-14T02:55:13;19.50;;;16.70;;
14470;SDS011;7321;50.802;4.336;2022-11-14T02:57:39;20.90;;;17.37;;
14470;SDS011;7321;50.802;4.336;2022-11-14T03:00:05;21.10;;;18.00;;
14470;SDS011;7321;50.802;4.336;2022-11-14T03:02:31;19.17;;;17.03;;
14470;SDS011;7321;50.802;4.336;2022-11-14T03:04:56;18.50;;;16.50;;
14470;SDS011;7321;50.802;4.336;2022-11-14T03:07:22;20.20;;;17.80;;
14470;SDS011;7321;50.802;4.336;2022-11-14T03:09:48;21.13;;;17.33;;
14470;SDS011;7321;50.802;4.336;2022-11-14T03:12:14;22.33;;;17.80;;
14470;SDS011;7321;50.802;4.336;2022-11-14T03:14:43;19.40;;;16.77;;
14470;SDS011;7321;50.802;4.336;2022-11-14T03:17:09;20.53;;;17.60;;
14470;SDS011;7321;50.802;4.336;2022-11-14T03:19:35;21.13;;;17.10;;
14470;SDS011;7321;50.802;4.336;2022-11-14T03:22:01;20.77;;;17.23;;
14470;SDS011;7321;50.802;4.336;2022-11-14T03:24:27;21.10;;;17.27;;
14470;SDS011;7321;50.802;4.336;2022-11-14T03:26:52;18.57;;;16.60;;
14470;SDS011;7321;50.802;4.336;2022-11-14T03:29:18;20.63;;;17.03;;
14470;SDS011;7321;50.802;4.336;2022-11-14T03:31:44;18.77;;;16.33;;
14470;SDS011;7321;50.802;4.336;2022-11-14T03:34:10;21.40;;;16.63;;
14470;SDS011;7321;50.802;4.336;2022-11-14T03:36:36;18.27;;;15.73;;
14470;SDS011;7321;50.802;4.336;2022-11-14T03:39:02;20.87;;;15.67;;
14470;SDS011;7321;50.802;4.336;2022-11-14T03:41:29;17.87;;;15.43;;
14470;SDS011;7321;50.802;4.336;2022-11-14T03:43:55;18.57;;;15.77;;
14470;SDS011;7321;50.802;4.336;2022-11-14T03:46:21;17.93;;;15.27;;
14470;SDS011;7321;50.802;4.336;2022-11-14T03:48:46;18.50;;;15.53;;
14470;SDS011;7321;50.802;4.336;2022-11-14T03:51:12;19.47;;;16.27;;
14470;SDS011;7321;50.802;4.336;2022-11-14T03:53:38;18.27;;;15.20;;
14470;SDS011;7321;50.802;4.336;2022-11-14T03:56:04;16.50;;;14.70;;
14470;SDS011;7321;50.802;4.336;2022-11-14T03:58:30;17.27;;;14.73;;
14470;SDS011;7321;50.802;4.336;2022-11-14T04:00:56;19.37;;;14.80;;
14470;SDS011;7321;50.802;4.336;2022-11-14T04:03:22;19.87;;;15.43;;
14470;SDS011;7321;50.802;4.336;2022-11-14T04:05:48;17.77;;;15.47;;
14470;SDS011;7321;50.802;4.336;2022-11-14T04:08:15;18.23;;;15.40;;
14470;SDS011;7321;50.802;4.336;2022-11-14T04:10:40;20.30;;;15.87;;
14470;SDS011;7321;50.802;4.336;2022-11-14T04:13:06;18.40;;;15.47;;
14470;SDS011;7321;50.802;4.336;2022-11-14T04:15:32;19.67;;;16.23;;
14470;SDS011;7321;50.802;4.336;2022-11-14T04:17:59;19.80;;;15.77;;
14470;SDS011;7321;50.802;4.336;2022-11-14T04:20:24;19.60;;;15.90;;
14470;SDS011;7321;50.802;4.336;2022-11-14T04:22:50;17.57;;;15.13;;
14470;SDS011;7321;50.802;4.336;2022-11-14T04:25:16;17.90;;;15.20;;
14470;SDS011;7321;50.802;4.336;2022-11-14T04:27:42;19.90;;;15.37;;
14470;SDS011;7321;50.802;4.336;2022-11-14T04:30:08;17.27;;;14.60;;
14470;SDS011;7321;50.802;4.336;2022-11-14T04:32:34;18.90;;;14.93;;
14470;SDS011;7321;50.802;4.336;2022-11-14T04:35:00;17.40;;;15.07;;
14470;SDS011;7321;50.802;4.336;2022-11-14T04:37:26;16.93;;;15.13;;
14470;SDS011;7321;50.802;4.336;2022-11-14T04:39:52;16.27;;;14.03;;
14470;SDS011;7321;50.802;4.336;2022-11-14T04:42:18;19.13;;;15.20;;
14470;SDS011;7321;50.802;4.336;2022-11-14T04:44:44;17.40;;;15.47;;
14470;SDS011;7321;50.802;4.336;2022-11-14T04:47:10;17.47;;;14.57;;
14470;SDS011;7321;50.802;4.336;2022-11-14T04:49:35;19.53;;;15.17;;
14470;SDS011;7321;50.802;4.336;2022-11-14T04:52:01;17.47;;;14.63;;
14470;SDS011;7321;50.802;4.336;2022-11-14T04:54:27;18.67;;;14.27;;
14470;SDS011;7321;50.802;4.336;2022-11-14T04:56:53;20.83;;;14.97;;
14470;SDS011;7321;50.802;4.336;2022-11-14T04:59:18;18.97;;;14.00;;
14470;SDS011;7321;50.802;4.336;2022-11-14T05:01:44;17.47;;;14.23;;
14470;SDS011;7321;50.802;4.336;2022-11-14T05:04:10;19.07;;;14.80;;
14470;SDS011;7321;50.802;4.336;2022-11-14T05:06:35;17.07;;;13.83;;
14470;SDS011;7321;50.802;4.336;2022-11-14T05:09:01;15.57;;;13.63;;
14470;SDS011;7321;50.802;4.336;2022-11-14T05:11:27;16.30;;;13.33;;
14470;SDS011;7321;50.802;4.336;2022-11-14T05:13:55;20.03;;;13.67;;
14470;SDS011;7321;50.802;4.336;2022-11-14T05:16:21;15.57;;;13.87;;
14470;SDS011;7321;50.802;4.336;2022-11-14T05:18:47;16.23;;;12.77;;
14470;SDS011;7321;50.802;4.336;2022-11-14T05:21:13;17.07;;;14.50;;
14470;SDS011;7321;50.802;4.336;2022-11-14T05:23:39;16.57;;;13.67;;
14470;SDS011;7321;50.802;4.336;2022-11-14T05:26:08;16.37;;;14.00;;
14470;SDS011;7321;50.802;4.336;2022-11-14T05:28:36;20.53;;;15.87;;
14470;SDS011;7321;50.802;4.336;2022-11-14T05:31:06;18.90;;;15.47;;
14470;SDS011;7321;50.802;4.336;2022-11-14T05:33:33;20.17;;;17.23;;
14470;SDS011;7321;50.802;4.336;2022-11-14T05:36:01;20.13;;;16.73;;
14470;SDS011;7321;50.802;4.336;2022-11-14T05:38:30;26.60;;;17.70;;
14470;SDS011;7321;50.802;4.336;2022-11-14T05:40:57;19.83;;;17.77;;
14470;SDS011;7321;50.802;4.336;2022-11-14T05:43:23;19.93;;;17.23;;
14470;SDS011;7321;50.802;4.336;2022-11-14T05:45:49;20.40;;;18.17;;
14470;SDS011;7321;50.802;4.336;2022-11-14T05:48:14;21.33;;;18.10;;
14470;SDS011;7321;50.802;4.336;2022-11-14T05:50:40;24.07;;;18.40;;
14470;SDS011;7321;50.802;4.336;2022-11-14T05:53:06;24.53;;;18.20;;
14470;SDS011;7321;50.802;4.336;2022-11-14T05:55:32;23.70;;;18.77;;
14470;SDS011;7321;50.802;4.336;2022-11-14T05:57:58;21.73;;;17.90;;
14470;SDS011;7321;50.802;4.336;2022-11-14T06:00:25;22.97;;;18.57;;
14470;SDS011;7321;50.802;4.336;2022-11-14T06:02:52;22.33;;;17.53;;
14470;SDS011;7321;50.802;4.336;2022-11-14T06:05:18;23.73;;;17.40;;
14470;SDS011;7321;50.802;4.336;2022-11-14T06:07:47;21.87;;;17.87;;
14470;SDS011;7321;50.802;4.336;2022-11-14T06:10:20;20.73;;;16.93;;
14470;SDS011;7321;50.802;4.336;2022-11-14T06:12:46;21.33;;;16.80;;
14470;SDS011;7321;50.802;4.336;2022-11-14T06:15:11;23.23;;;17.57;;
14470;SDS011;7321;50.802;4.336;2022-11-14T06:17:37;19.20;;;16.00;;
14470;SDS011;7321;50.802;4.336;2022-11-14T06:20:03;34.90;;;16.77;;
14470;SDS011;7321;50.802;4.336;2022-11-14T06:22:30;20.03;;;16.50;;
14470;SDS011;7321;50.802;4.336;2022-11-14T06:24:55;20.97;;;16.07;;
14470;SDS011;7321;50.802;4.336;2022-11-14T06:27:24;20.33;;;15.63;;
14470;SDS011;7321;50.802;4.336;2022-11-14T06:29:53;19.87;;;15.50;;
14470;SDS011;7321;50.802;4.336;2022-11-14T06:32:18;39.70;;;25.63;;
14470;SDS011;7321;50.802;4.336;2022-11-14T06:34:44;37.33;;;23.33;;
14470;SDS011;7321;50.802;4.336;2022-11-14T06:37:10;20.27;;;15.23;;
14470;SDS011;7321;50.802;4.336;2022-11-14T06:39:36;23.03;;;15.97;;
14470;SDS011;7321;50.802;4.336;2022-11-14T06:42:01;32.00;;;21.20;;
14470;SDS011;7321;50.802;4.336;2022-11-14T06:44:27;24.30;;;16.83;;
14470;SDS011;7321;50.802;4.336;2022-11-14T06:46:53;24.77;;;17.50;;
14470;SDS011;7321;50.802;4.336;2022-11-14T06:49:19;23.93;;;16.27;;
14470;SDS011;7321;50.802;4.336;2022-11-14T06:51:45;20.67;;;15.23;;
14470;SDS011;7321;50.802;4.336;2022-11-14T06:54:10;23.63;;;16.10;;
14470;SDS011;7321;50.802;4.336;2022-11-14T06:56:37;23.60;;;15.60;;
14470;SDS011;7321;50.802;4.336;2022-11-14T06:59:02;22.23;;;15.27;;
14470;SDS011;7321;50.802;4.336;2022-11-14T07:01:28;23.50;;;14.63;;
14470;SDS011;7321;50.802;4.336;2022-11-14T07:03:54;22.33;;;14.50;;
14470;SDS011;7321;50.802;4.336;2022-11-14T07:06:23;23.93;;;14.60;;
14470;SDS011;7321;50.802;4.336;2022-11-14T07:08:50;20.47;;;14.30;;
14470;SDS011;7321;50.802;4.336;2022-11-14T07:11:19;22.27;;;14.37;;
14470;SDS011;7321;50.802;4.336;2022-11-14T07:13:54;23.77;;;15.53;;
14470;SDS011;7321;50.802;4.336;2022-11-14T07:16:31;19.00;;;14.27;;
14470;SDS011;7321;50.802;4.336;2022-11-14T07:19:00;21.53;;;14.33;;
14470;SDS011;7321;50.802;4.336;2022-11-14T07:21:28;22.00;;;14.23;;
14470;SDS011;7321;50.802;4.336;2022-11-14T07:23:55;18.70;;;13.40;;
14470;SDS011;7321;50.802;4.336;2022-11-14T07:26:21;19.93;;;13.00;;
14470;SDS011;7321;50.802;4.336;2022-11-14T07:28:47;23.27;;;13.93;;
14470;SDS011;7321;50.802;4.336;2022-11-14T07:31:14;22.87;;;14.53;;
14470;SDS011;7321;50.802;4.336;2022-11-14T07:33:41;24.17;;;14.10;;
14470;SDS011;7321;50.802;4.336;2022-11-14T07:36:08;18.80;;;12.73;;
14470;SDS011;7321;50.802;4.336;2022-11-14T07:38:35;29.70;;;14.73;;
14470;SDS011;7321;50.802;4.336;2022-11-14T07:41:03;21.23;;;13.73;;
14470;SDS011;7321;50.802;4.336;2022-11-14T07:43:31;23.37;;;13.43;;
14470;SDS011;7321;50.802;4.336;2022-11-14T07:45:58;19.70;;;13.50;;
14470;SDS011;7321;50.802;4.336;2022-11-14T07:48:25;19.33;;;14.23;;
14470;SDS011;7321;50.802;4.336;2022-11-14T07:50:58;22.23;;;13.60;;
14470;SDS011;7321;50.802;4.336;2022-11-14T07:53:25;18.43;;;13.30;;
14470;SDS011;7321;50.802;4.336;2022-11-14T07:55:51;18.20;;;12.57;;
14470;SDS011;7321;50.802;4.336;2022-11-14T07:58:16;18.50;;;12.93;;
14470;SDS011;7321;50.802;4.336;2022-11-14T08:00:42;18.63;;;13.30;;
14470;SDS011;7321;50.802;4.336;2022-11-14T08:03:08;19.10;;;13.17;;
14470;SDS011;7321;50.802;4.336;2022-11-14T08:05:35;17.07;;;12.40;;
14470;SDS011;7321;50.802;4.336;2022-11-14T08:08:01;19.33;;;14.37;;
14470;SDS011;7321;50.802;4.336;2022-11-14T08:10:27;19.57;;;13.53;;
14470;SDS011;7321;50.802;4.336;2022-11-14T08:13:00;17.77;;;12.70;;
14470;SDS011;7321;50.802;4.336;2022-11-14T08:15:27;21.73;;;13.53;;
14470;SDS011;7321;50.802;4.336;2022-11-14T08:17:57;20.77;;;14.00;;
14470;SDS011;7321;50.802;4.336;2022-11-14T08:20:24;22.27;;;13.83;;
14470;SDS011;7321;50.802;4.336;2022-11-14T08:22:51;20.17;;;14.13;;
14470;SDS011;7321;50.802;4.336;2022-11-14T08:25:26;17.30;;;13.17;;
14470;SDS011;7321;50.802;4.336;2022-11-14T08:27:52;19.17;;;13.80;;
14470;SDS011;7321;50.802;4.336;2022-11-14T08:30:18;21.57;;;14.33;;
14470;SDS011;7321;50.802;4.336;2022-11-14T08:32:44;18.93;;;13.17;;
14470;SDS011;7321;50.802;4.336;2022-11-14T08:35:10;17.37;;;13.50;;
14470;SDS011;7321;50.802;4.336;2022-11-14T08:37:36;18.10;;;13.47;;
14470;SDS011;7321;50.802;4.336;2022-11-14T08:40:02;17.50;;;13.03;;
14470;SDS011;7321;50.802;4.336;2022-11-14T08:42:28;18.90;;;14.13;;
14470;SDS011;7321;50.802;4.336;2022-11-14T08:44:53;21.73;;;12.97;;
14470;SDS011;7321;50.802;4.336;2022-11-14T08:47:19;19.37;;;13.90;;
14470;SDS011;7321;50.802;4.336;2022-11-14T08:49:45;17.67;;;13.43;;
14470;SDS011;7321;50.802;4.336;2022-11-14T08:52:11;18.83;;;14.03;;
14470;SDS011;7321;50.802;4.336;2022-11-14T08:54:36;19.80;;;13.60;;
14470;SDS011;7321;50.802;4.336;2022-11-14T08:57:02;20.67;;;13.63;;
14470;SDS011;7321;50.802;4.336;2022-11-14T08:59:29;17.47;;;13.97;;
14470;SDS011;7321;50.802;4.336;2022-11-14T09:01:55;18.93;;;14.80;;
14470;SDS011;7321;50.802;4.336;2022-11-14T09:04:22;22.23;;;13.83;;
14470;SDS011;7321;50.802;4.336;2022-11-14T09:06:48;21.60;;;14.97;;
14470;SDS011;7321;50.802;4.336;2022-11-14T09:09:14;19.00;;;14.90;;
14470;SDS011;7321;50.802;4.336;2022-11-14T09:11:39;17.80;;;14.17;;
14470;SDS011;7321;50.802;4.336;2022-11-14T09:14:05;22.30;;;15.07;;
14470;SDS011;7321;50.802;4.336;2022-11-14T09:16:31;21.50;;;15.27;;
14470;SDS011;7321;50.802;4.336;2022-11-14T09:18:58;19.97;;;15.00;;
14470;SDS011;7321;50.802;4.336;2022-11-14T09:21:24;21.63;;;16.10;;
14470;SDS011;7321;50.802;4.336;2022-11-14T09:23:52;21.90;;;15.13;;
14470;SDS011;7321;50.802;4.336;2022-11-14T09:26:18;24.37;;;16.23;;
14470;SDS011;7321;50.802;4.336;2022-11-14T09:28:44;19.17;;;15.20;;
14470;SDS011;7321;50.802;4.336;2022-11-14T09:31:12;20.57;;;14.57;;
14470;SDS011;7321;50.802;4.336;2022-11-14T09:33:39;20.80;;;14.53;;
14470;SDS011;7321;50.802;4.336;2022-11-14T09:36:05;18.07;;;13.33;;
14470;SDS011;7321;50.802;4.336;2022-11-14T09:38:33;19.50;;;14.23;;
14470;SDS011;7321;50.802;4.336;2022-11-14T09:41:01;17.77;;;14.43;;
14470;SDS011;7321;50.802;4.336;2022-11-14T09:46:57;21.70;;;15.67;;
14470;SDS011;7321;50.802;4.336;2022-11-14T09:49:30;21.07;;;14.77;;
14470;SDS011;7321;50.802;4.336;2022-11-14T09:54:51;19.13;;;15.00;;
14470;SDS011;7321;50.802;4.336;2022-11-14T09:57:34;21.77;;;15.63;;
14470;SDS011;7321;50.802;4.336;2022-11-14T10:00:00;21.50;;;15.03;;
14470;SDS011;7321;50.802;4.336;2022-11-14T10:02:36;22.77;;;16.50;;
14470;SDS011;7321;50.802;4.336;2022-11-14T10:08:06;21.33;;;15.50;;
14470;SDS011;7321;50.802;4.336;2022-11-14T10:13:35;21.60;;;15.37;;
14470;SDS011;7321;50.802;4.336;2022-11-14T10:21:49;16.60;;;13.63;;
14470;SDS011;7321;50.802;4.336;2022-11-14T10:27:30;18.43;;;14.33;;
14470;SDS011;7321;50.802;4.336;2022-11-14T10:35:03;20.23;;;16.80;;
14470;SDS011;7321;50.802;4.336;2022-11-14T10:37:48;21.23;;;17.40;;
14470;SDS011;7321;50.802;4.336;2022-11-14T10:40:24;21.87;;;18.13;;
14470;SDS011;7321;50.802;4.336;2022-11-14T10:42:56;20.50;;;17.07;;
14470;SDS011;7321;50.802;4.336;2022-11-14T10:45:35;23.50;;;17.93;;
14470;SDS011;7321;50.802;4.336;2022-11-14T10:50:59;24.70;;;18.90;;
14470;SDS011;7321;50.802;4.336;2022-11-14T10:53:40;23.73;;;18.53;;
14470;SDS011;7321;50.802;4.336;2022-11-14T10:56:09;22.33;;;18.30;;
14470;SDS011;7321;50.802;4.336;2022-11-14T10:58:39;22.47;;;18.47;;
14470;SDS011;7321;50.802;4.336;2022-11-14T11:04:13;22.87;;;17.37;;
14470;SDS011;7321;50.802;4.336;2022-11-14T11:06:49;23.60;;;17.57;;
14470;SDS011;7321;50.802;4.336;2022-11-14T11:09:18;21.47;;;18.10;;
14470;SDS011;7321;50.802;4.336;2022-11-14T11:12:15;23.43;;;17.87;;
14470;SDS011;7321;50.802;4.336;2022-11-14T11:14:46;23.40;;;17.87;;
14470;SDS011;7321;50.802;4.336;2022-11-14T11:17:19;22.50;;;18.20;;
14470;SDS011;7321;50.802;4.336;2022-11-14T11:19:47;24.17;;;17.77;;
14470;SDS011;7321;50.802;4.336;2022-11-14T11:24:59;23.90;;;18.77;;
14470;SDS011;7321;50.802;4.336;2022-11-14T11:27:25;26.33;;;19.53;;
14470;SDS011;7321;50.802;4.336;2022-11-14T11:30:03;26.23;;;19.40;;
14470;SDS011;7321;50.802;4.336;2022-11-14T11:32:42;24.83;;;19.27;;
14470;SDS011;7321;50.802;4.336;2022-11-14T11:35:10;26.17;;;20.07;;
14470;SDS011;7321;50.802;4.336;2022-11-14T11:40:23;26.57;;;19.53;;
14470;SDS011;7321;50.802;4.336;2022-11-14T11:42:57;26.40;;;18.77;;
14470;SDS011;7321;50.802;4.336;2022-11-14T11:45:40;29.43;;;21.37;;
14470;SDS011;7321;50.802;4.336;2022-11-14T11:48:19;25.80;;;19.30;;
14470;SDS011;7321;50.802;4.336;2022-11-14T11:50:46;27.67;;;19.93;;
14470;SDS011;7321;50.802;4.336;2022-11-14T11:53:18;26.10;;;21.00;;
14470;SDS011;7321;50.802;4.336;2022-11-14T11:55:52;29.20;;;21.60;;
14470;SDS011;7321;50.802;4.336;2022-11-14T12:01:08;29.37;;;22.30;;
14470;SDS011;7321;50.802;4.336;2022-11-14T12:03:35;30.57;;;22.53;;
14470;SDS011;7321;50.802;4.336;2022-11-14T12:11:26;28.80;;;22.27;;
14470;SDS011;7321;50.802;4.336;2022-11-14T12:14:05;31.03;;;23.30;;
14470;SDS011;7321;50.802;4.336;2022-11-14T12:22:17;33.27;;;23.47;;
14470;SDS011;7321;50.802;4.336;2022-11-14T12:24:49;29.73;;;23.17;;
14470;SDS011;7321;50.802;4.336;2022-11-14T12:27:58;31.60;;;22.97;;
14470;SDS011;7321;50.802;4.336;2022-11-14T12:30:31;29.40;;;22.93;;
14470;SDS011;7321;50.802;4.336;2022-11-14T12:37:54;30.70;;;23.27;;
14470;SDS011;7321;50.802;4.336;2022-11-14T12:40:27;32.80;;;23.70;;
14470;SDS011;7321;50.802;4.336;2022-11-14T12:42:58;32.03;;;22.87;;
14470;SDS011;7321;50.802;4.336;2022-11-14T12:48:20;34.13;;;25.53;;
14470;SDS011;7321;50.802;4.336;2022-11-14T12:50:50;33.23;;;25.13;;
14470;SDS011;7321;50.802;4.336;2022-11-14T12:56:05;36.10;;;26.90;;
14470;SDS011;7321;50.802;4.336;2022-11-14T13:06:49;39.77;;;28.97;;
14470;SDS011;7321;50.802;4.336;2022-11-14T13:12:35;39.23;;;29.47;;
14470;SDS011;7321;50.802;4.336;2022-11-14T13:21:17;38.43;;;29.77;;
14470;SDS011;7321;50.802;4.336;2022-11-14T13:24:05;41.27;;;30.13;;
14470;SDS011;7321;50.802;4.336;2022-11-14T13:28:57;40.23;;;30.70;;
14470;SDS011;7321;50.802;4.336;2022-11-14T13:37:03;42.20;;;30.63;;
14470;SDS011;7321;50.802;4.336;2022-11-14T13:40:15;41.70;;;30.77;;
14470;SDS011;7321;50.802;4.336;2022-11-14T13:42:45;37.43;;;27.70;;
14470;SDS011;7321;50.802;4.336;2022-11-14T13:50:59;35.23;;;25.37;;
14470;SDS011;7321;50.802;4.336;2022-11-14T13:53:29;34.07;;;25.73;;
14470;SDS011;7321;50.802;4.336;2022-11-14T14:07:12;29.77;;;21.90;;
14470;SDS011;7321;50.802;4.336;2022-11-14T14:10:14;26.80;;;21.10;;
14470;SDS011;7321;50.802;4.336;2022-11-14T14:32:41;25.57;;;18.63;;
14470;SDS011;7321;50.802;4.336;2022-11-14T14:35:23;25.73;;;20.77;;
14470;SDS011;7321;50.802;4.336;2022-11-14T14:37:52;28.47;;;20.70;;
14470;SDS011;7321;50.802;4.336;2022-11-14T14:40:23;25.47;;;20.63;;
14470;SDS011;7321;50.802;4.336;2022-11-14T14:42:51;23.47;;;19.43;;
14470;SDS011;7321;50.802;4.336;2022-11-14T14:45:19;25.27;;;19.43;;
14470;SDS011;7321;50.802;4.336;2022-11-14T14:47:47;26.80;;;20.80;;
14470;SDS011;7321;50.802;4.336;2022-11-14T14:50:26;25.67;;;20.70;;
14470;SDS011;7321;50.802;4.336;2022-11-14T14:52:56;26.80;;;20.30;;
14470;SDS011;7321;50.802;4.336;2022-11-14T14:55:24;26.63;;;20.83;;
14470;SDS011;7321;50.802;4.336;2022-11-14T14:58:11;27.57;;;21.77;;
14470;SDS011;7321;50.802;4.336;2022-11-14T15:00:39;25.60;;;20.43;;
14470;SDS011;7321;50.802;4.336;2022-11-14T15:03:16;26.07;;;19.40;;
14470;SDS011;7321;50.802;4.336;2022-11-14T15:05:42;25.20;;;20.17;;
14470;SDS011;7321;50.802;4.336;2022-11-14T15:08:12;22.80;;;18.37;;
14470;SDS011;7321;50.802;4.336;2022-11-14T15:10:39;23.90;;;18.13;;
14470;SDS011;7321;50.802;4.336;2022-11-14T15:13:07;22.70;;;19.10;;
14470;SDS011;7321;50.802;4.336;2022-11-14T15:15:39;23.60;;;18.63;;
14470;SDS011;7321;50.802;4.336;2022-11-14T15:18:06;24.33;;;18.70;;
14470;SDS011;7321;50.802;4.336;2022-11-14T15:20:38;21.77;;;17.80;;
14470;SDS011;7321;50.802;4.336;2022-11-14T15:23:05;23.60;;;18.57;;
14470;SDS011;7321;50.802;4.336;2022-11-14T15:25:40;21.53;;;17.77;;
14470;SDS011;7321;50.802;4.336;2022-11-14T15:28:18;23.60;;;18.50;;
14470;SDS011;7321;50.802;4.336;2022-11-14T15:30:58;22.13;;;19.37;;
14470;SDS011;7321;50.802;4.336;2022-11-14T15:33:27;22.10;;;17.50;;
14470;SDS011;7321;50.802;4.336;2022-11-14T15:39:03;21.70;;;16.37;;
14470;SDS011;7321;50.802;4.336;2022-11-14T15:41:44;21.10;;;16.23;;
14470;SDS011;7321;50.802;4.336;2022-11-14T15:44:29;20.37;;;15.80;;
14470;SDS011;7321;50.802;4.336;2022-11-14T15:46:57;19.83;;;15.77;;
14470;SDS011;7321;50.802;4.336;2022-11-14T15:49:25;21.67;;;16.00;;
14470;SDS011;7321;50.802;4.336;2022-11-14T15:54:20;19.63;;;15.20;;
14470;SDS011;7321;50.802;4.336;2022-11-14T15:56:48;17.93;;;15.17;;
14470;SDS011;7321;50.802;4.336;2022-11-14T15:59:14;18.10;;;15.20;;
14470;SDS011;7321;50.802;4.336;2022-11-14T16:01:40;18.83;;;14.70;;
14470;SDS011;7321;50.802;4.336;2022-11-14T16:04:13;20.13;;;14.27;;
14470;SDS011;7321;50.802;4.336;2022-11-14T16:06:41;21.90;;;16.67;;
14470;SDS011;7321;50.802;4.336;2022-11-14T16:09:10;18.43;;;14.70;;
14470;SDS011;7321;50.802;4.336;2022-11-14T16:11:39;15.73;;;13.47;;
14470;SDS011;7321;50.802;4.336;2022-11-14T16:14:05;15.73;;;13.60;;
14470;SDS011;7321;50.802;4.336;2022-11-14T16:16:30;16.33;;;14.17;;
14470;SDS011;7321;50.802;4.336;2022-11-14T16:18:56;16.93;;;12.90;;
14470;SDS011;7321;50.802;4.336;2022-11-14T16:21:22;14.70;;;13.10;;
14470;SDS011;7321;50.802;4.336;2022-11-14T16:23:48;17.03;;;14.03;;
14470;SDS011;7321;50.802;4.336;2022-11-14T16:26:14;17.63;;;14.23;;
14470;SDS011;7321;50.802;4.336;2022-11-14T16:28:40;16.53;;;13.93;;
14470;SDS011;7321;50.802;4.336;2022-11-14T16:31:12;18.60;;;14.00;;
14470;SDS011;7321;50.802;4.336;2022-11-14T16:33:38;18.80;;;14.40;;
14470;SDS011;7321;50.802;4.336;2022-11-14T16:36:04;18.27;;;14.37;;
14470;SDS011;7321;50.802;4.336;2022-11-14T16:38:31;16.83;;;14.20;;
14470;SDS011;7321;50.802;4.336;2022-11-14T16:41:00;16.70;;;14.13;;
14470;SDS011;7321;50.802;4.336;2022-11-14T16:44:11;18.33;;;14.67;;
14470;SDS011;7321;50.802;4.336;2022-11-14T16:46:40;17.93;;;14.80;;
14470;SDS011;7321;50.802;4.336;2022-11-14T16:49:12;24.87;;;19.80;;
14470;SDS011;7321;50.802;4.336;2022-11-14T16:51:39;18.70;;;15.63;;
14470;SDS011;7321;50.802;4.336;2022-11-14T16:54:09;20.40;;;15.13;;